Kezdőlap
METAR-TAF:

METAR-TAF

Repülőterek :

Magyarhradis, Csehország

földrajzi szélesség: 49-01-46N, földrajzi hosszúság: 017-26-23E, magasság: 177 m

Jelenlegi meteorológiai megfigyelések

A jelentés 14 órával és 33 perccel ezelõtt készült, 14:00 UTC
Nyugat-délnyugati szél 5 kt, dél-délnyugati és nyugati között változik
Hőmérséklet 21°C
Páratartalom 38%
Légköri nyomás 1015 hPa
Látótávolság 10 km, vagy több
felhőtlen 1500 m magasságban, és nincs gomolyfelhõ

METAR: LKKU 141400Z 24005KT 200V270 CAVOK 21/06 Q1015

Idő: 06:33 (04:33 UTC)


TAF: hiányzik

Meteorológiai megfigyelések és előrejelzések több, mint 4000 repülőtéren (METAR és TAF jelentéseket).

A térképen piros és sárga pontok jelzik az elérhető meteorológiai állomásokat.

Mozgassa az egeret a pont fölött, hogy megjelenjen az állomás neve.

Azután kattintson az időjárási megfigyelések és előrejelzések megtekintéséhez.

A térkép megváltoztatása: kattintson a fekete keresztel jelölt zöld gombra ráközelítéshez, a vonallal jelölt zöld gombra távolításhoz, vagy a zöld nyilakra a szomszédos térképek eléréséhez.


METAR-TAF: